createdAt,value
2016-11-03T00:00:11.024Z,0
2016-11-03T00:01:24.528Z,0
2016-11-03T00:02:38.064Z,0
2016-11-03T00:03:51.771Z,0
2016-11-03T00:05:04.856Z,0
2016-11-03T00:06:18.657Z,0
2016-11-03T00:07:32.216Z,0
2016-11-03T00:08:45.875Z,0
2016-11-03T00:09:58.876Z,0
2016-11-03T00:11:12.481Z,0
2016-11-03T00:12:25.551Z,0
2016-11-03T00:13:38.603Z,0
2016-11-03T00:14:51.398Z,0
2016-11-03T00:16:04.960Z,0
2016-11-03T00:17:18.574Z,0
2016-11-03T00:18:31.843Z,0
2016-11-03T00:19:45.493Z,0
2016-11-03T00:20:58.644Z,0
2016-11-03T00:22:12.402Z,0
2016-11-03T00:23:25.462Z,0
2016-11-03T00:24:38.472Z,0
2016-11-03T00:25:52.018Z,0
2016-11-03T00:27:05.666Z,0
2016-11-03T00:28:18.701Z,0
2016-11-03T00:29:32.353Z,0
2016-11-03T00:30:45.875Z,0
2016-11-03T00:31:59.422Z,0
2016-11-03T00:33:12.985Z,0
2016-11-03T00:34:26.582Z,0
2016-11-03T00:35:40.104Z,0
2016-11-03T00:36:53.089Z,0
2016-11-03T00:38:06.166Z,0
2016-11-03T00:39:18.665Z,0
2016-11-03T00:40:30.663Z,0
2016-11-03T00:41:43.699Z,0
2016-11-03T00:42:57.271Z,0
2016-11-03T00:44:11.664Z,0
2016-11-03T00:45:24.698Z,0
2016-11-03T00:46:38.267Z,0
2016-11-03T00:47:51.931Z,0
2016-11-03T00:49:04.993Z,0
2016-11-03T00:50:18.456Z,0
2016-11-03T00:51:31.562Z,0
2016-11-03T00:52:45.431Z,0
2016-11-03T00:53:59.069Z,0
2016-11-03T00:55:11.290Z,0
2016-11-03T00:56:24.338Z,0
2016-11-03T00:57:37.900Z,0
2016-11-03T00:58:50.927Z,0
2016-11-03T01:00:04.450Z,0
2016-11-03T01:01:18.356Z,0
2016-11-03T01:02:31.404Z,0
2016-11-03T01:03:45.419Z,0
2016-11-03T01:04:59.006Z,0
2016-11-03T01:06:12.601Z,0
2016-11-03T01:07:26.179Z,0
2016-11-03T01:08:39.787Z,0
2016-11-03T01:09:53.447Z,0
2016-11-03T01:11:06.505Z,0
2016-11-03T01:12:19.662Z,0
2016-11-03T01:13:33.289Z,0
2016-11-03T01:14:46.882Z,0
2016-11-03T01:16:00.623Z,0
2016-11-03T01:17:13.181Z,0
2016-11-03T01:18:26.301Z,0
2016-11-03T01:19:39.348Z,0
2016-11-03T01:20:52.437Z,0
2016-11-03T01:22:06.282Z,0
2016-11-03T01:23:19.371Z,0
2016-11-03T01:24:31.916Z,0
2016-11-03T01:25:45.496Z,0
2016-11-03T01:26:59.008Z,0
2016-11-03T01:28:12.561Z,0
2016-11-03T01:29:26.207Z,0
2016-11-03T01:30:39.305Z,0
2016-11-03T01:31:52.805Z,0
2016-11-03T01:33:05.834Z,0
2016-11-03T01:34:19.082Z,0
2016-11-03T01:35:32.717Z,0
2016-11-03T01:36:45.333Z,0
2016-11-03T01:37:58.451Z,0
2016-11-03T01:39:12.330Z,0
2016-11-03T01:40:25.903Z,0
2016-11-03T01:41:39.448Z,0
2016-11-03T01:42:52.569Z,0
2016-11-03T01:44:06.138Z,0
2016-11-03T01:45:19.745Z,0
2016-11-03T01:46:33.319Z,0
2016-11-03T01:47:46.947Z,0
2016-11-03T01:49:00.021Z,0
2016-11-03T01:50:13.035Z,0
2016-11-03T01:51:26.039Z,0
2016-11-03T01:52:39.095Z,0
2016-11-03T01:53:52.702Z,0
2016-11-03T01:55:06.303Z,0
2016-11-03T01:56:19.844Z,0
2016-11-03T01:57:33.255Z,0
2016-11-03T01:58:46.339Z,0
2016-11-03T01:59:59.380Z,0
2016-11-03T02:01:12.887Z,0
2016-11-03T02:02:26.426Z,0
2016-11-03T02:03:40.123Z,0
2016-11-03T02:04:53.963Z,0
2016-11-03T02:06:07.277Z,0
2016-11-03T02:07:20.564Z,0
2016-11-03T02:08:33.621Z,0
2016-11-03T02:09:46.351Z,0
2016-11-03T02:10:59.966Z,0
2016-11-03T02:12:13.035Z,0
2016-11-03T02:13:26.633Z,0
2016-11-03T02:14:40.177Z,0
2016-11-03T02:15:53.748Z,0
2016-11-03T02:17:07.390Z,0
2016-11-03T02:18:20.461Z,0
2016-11-03T02:19:34.143Z,0
2016-11-03T02:20:47.737Z,0
2016-11-03T02:22:00.727Z,0
2016-11-03T02:23:14.283Z,0
2016-11-03T02:24:27.889Z,0
2016-11-03T02:25:41.527Z,0
2016-11-03T02:26:53.731Z,0
2016-11-03T02:28:07.321Z,0
2016-11-03T02:29:20.370Z,0
2016-11-03T02:30:33.989Z,0
2016-11-03T02:31:47.609Z,0
2016-11-03T02:33:00.165Z,0
2016-11-03T02:34:13.777Z,0
2016-11-03T02:35:27.347Z,0
2016-11-03T02:36:41.024Z,0
2016-11-03T02:37:54.828Z,0
2016-11-03T02:39:08.460Z,0
2016-11-03T02:40:21.560Z,0
2016-11-03T02:41:35.245Z,0
2016-11-03T02:42:48.792Z,0
2016-11-03T02:44:02.386Z,0
2016-11-03T02:45:15.430Z,0
2016-11-03T02:46:28.463Z,0
2016-11-03T02:47:42.342Z,0
2016-11-03T02:48:55.920Z,0
2016-11-03T02:50:08.953Z,0
2016-11-03T02:51:21.972Z,0
2016-11-03T02:52:35.508Z,0
2016-11-03T02:53:49.063Z,0
2016-11-03T02:55:02.696Z,0
2016-11-03T02:56:15.736Z,0
2016-11-03T02:57:28.247Z,0
2016-11-03T02:58:41.019Z,0
2016-11-03T02:59:54.767Z,0
2016-11-03T03:01:08.309Z,0
2016-11-03T03:02:21.917Z,0
2016-11-03T03:03:35.009Z,0
2016-11-03T03:04:48.067Z,0
2016-11-03T03:06:01.559Z,0
2016-11-03T03:07:14.617Z,0
2016-11-03T03:08:27.690Z,0
2016-11-03T03:09:41.252Z,0
2016-11-03T03:10:54.843Z,0
2016-11-03T03:12:08.390Z,0
2016-11-03T03:13:21.976Z,0
2016-11-03T03:14:35.559Z,0
2016-11-03T03:15:49.103Z,0
2016-11-03T03:17:02.717Z,0
2016-11-03T03:18:16.350Z,0
2016-11-03T03:19:29.920Z,0
2016-11-03T03:20:43.597Z,0
2016-11-03T03:21:56.142Z,0
2016-11-03T03:23:09.692Z,0
2016-11-03T03:24:23.027Z,0
2016-11-03T03:25:36.762Z,0
2016-11-03T03:26:49.820Z,0
2016-11-03T03:28:03.357Z,0
2016-11-03T03:29:16.944Z,0
2016-11-03T03:30:30.559Z,0
2016-11-03T03:31:44.194Z,0
2016-11-03T03:32:57.812Z,0
2016-11-03T03:34:11.396Z,0
2016-11-03T03:35:23.921Z,0
2016-11-03T03:36:36.974Z,0
2016-11-03T03:37:50.581Z,0
2016-11-03T03:39:04.188Z,0
2016-11-03T03:40:17.732Z,0
2016-11-03T03:41:31.265Z,0
2016-11-03T03:42:43.798Z,0
2016-11-03T03:43:57.431Z,0
2016-11-03T03:45:11.068Z,0
2016-11-03T03:46:24.114Z,0
2016-11-03T03:47:37.677Z,0
2016-11-03T03:48:50.769Z,0
2016-11-03T03:50:04.413Z,0
2016-11-03T03:51:18.102Z,0
2016-11-03T03:52:31.661Z,0
2016-11-03T03:53:45.496Z,0
2016-11-03T03:54:58.905Z,0
2016-11-03T03:56:12.604Z,0
2016-11-03T03:57:25.630Z,0
2016-11-03T03:58:39.222Z,0
2016-11-03T03:59:52.858Z,0
2016-11-03T04:01:05.379Z,0
2016-11-03T04:02:18.421Z,0
2016-11-03T04:03:30.871Z,0
2016-11-03T04:04:43.923Z,0
2016-11-03T04:05:57.858Z,0
2016-11-03T04:07:10.936Z,0
2016-11-03T04:08:24.262Z,0
2016-11-03T04:09:37.832Z,0
2016-11-03T04:10:51.647Z,0
2016-11-03T04:12:05.288Z,0
2016-11-03T04:13:18.669Z,0
2016-11-03T04:14:31.983Z,0
2016-11-03T04:15:45.552Z,0
2016-11-03T04:16:59.107Z,0
2016-11-03T04:18:12.361Z,0
2016-11-03T04:19:25.477Z,0
2016-11-03T04:20:39.011Z,0
2016-11-03T04:21:52.573Z,0
2016-11-03T04:23:05.654Z,0
2016-11-03T04:24:18.176Z,0
2016-11-03T04:25:31.292Z,0
2016-11-03T04:26:44.893Z,0
2016-11-03T04:27:57.420Z,0
2016-11-03T04:29:10.962Z,0
2016-11-03T04:30:23.953Z,0
2016-11-03T04:31:36.996Z,0
2016-11-03T04:32:50.062Z,0
2016-11-03T04:34:03.662Z,0
2016-11-03T04:35:17.235Z,0
2016-11-03T04:36:30.791Z,0
2016-11-03T04:37:44.332Z,0
2016-11-03T04:38:57.300Z,0
2016-11-03T04:40:10.899Z,0
2016-11-03T04:41:23.957Z,0
2016-11-03T04:42:37.631Z,0
2016-11-03T04:43:51.295Z,0
2016-11-03T04:45:04.283Z,0
2016-11-03T04:46:17.838Z,0
2016-11-03T04:47:31.433Z,0
2016-11-03T04:48:44.974Z,0
2016-11-03T04:49:58.341Z,0
2016-11-03T04:51:11.361Z,0
2016-11-03T04:52:24.888Z,0
2016-11-03T04:53:38.525Z,0
2016-11-03T04:54:52.090Z,0
2016-11-03T04:56:05.713Z,0
2016-11-03T04:57:18.767Z,0
2016-11-03T04:58:32.407Z,0
2016-11-03T04:59:46.008Z,0
2016-11-03T05:00:59.657Z,0
2016-11-03T05:02:12.639Z,0
2016-11-03T05:03:26.221Z,0
2016-11-03T05:04:39.827Z,0
2016-11-03T05:05:52.890Z,0
2016-11-03T05:07:06.555Z,0
2016-11-03T05:08:20.162Z,0
2016-11-03T05:09:33.786Z,0
2016-11-03T05:10:47.431Z,0
2016-11-03T05:12:00.495Z,0
2016-11-03T05:13:14.133Z,0
2016-11-03T05:14:27.902Z,0
2016-11-03T05:15:41.501Z,0
2016-11-03T05:16:54.496Z,0
2016-11-03T05:18:07.568Z,0
2016-11-03T05:19:21.174Z,0
2016-11-03T05:20:34.804Z,0
2016-11-03T05:21:48.528Z,0
2016-11-03T05:23:02.094Z,0
2016-11-03T05:24:15.702Z,0
2016-11-03T05:25:29.306Z,0
2016-11-03T05:26:42.656Z,0
2016-11-03T05:27:55.183Z,0
2016-11-03T05:29:08.255Z,0
2016-11-03T05:30:21.857Z,0
2016-11-03T05:31:35.435Z,0
2016-11-03T05:32:48.605Z,0
2016-11-03T05:34:01.962Z,0
2016-11-03T05:35:15.605Z,0
2016-11-03T05:36:29.172Z,0
2016-11-03T05:37:42.807Z,0
2016-11-03T05:38:56.467Z,0
2016-11-03T05:40:09.752Z,0
2016-11-03T05:41:23.391Z,0
2016-11-03T05:42:36.437Z,0
2016-11-03T05:43:49.989Z,0
2016-11-03T05:45:03.569Z,0
2016-11-03T05:46:17.162Z,0
2016-11-03T05:47:30.819Z,0
2016-11-03T05:48:44.334Z,0
2016-11-03T05:49:57.961Z,0
2016-11-03T05:51:11.588Z,0
2016-11-03T05:52:25.116Z,0
2016-11-03T05:53:38.759Z,0
2016-11-03T05:54:51.877Z,0
2016-11-03T05:56:05.475Z,0
2016-11-03T05:57:19.018Z,0
2016-11-03T05:58:32.614Z,0
2016-11-03T05:59:45.681Z,0
2016-11-03T06:00:58.715Z,0
2016-11-03T06:02:12.492Z,0
2016-11-03T06:03:25.509Z,0
2016-11-03T06:04:39.121Z,0
2016-11-03T06:05:52.138Z,0
2016-11-03T06:07:05.847Z,0
2016-11-03T06:08:19.471Z,0
2016-11-03T06:09:33.066Z,0
2016-11-03T06:10:46.629Z,0
2016-11-03T06:12:00.212Z,0
2016-11-03T06:13:12.749Z,0
2016-11-03T06:14:25.785Z,0
2016-11-03T06:15:39.484Z,0
2016-11-03T06:16:52.854Z,0
2016-11-03T06:18:06.435Z,0
2016-11-03T06:19:20.104Z,0
2016-11-03T06:20:33.723Z,0
2016-11-03T06:21:47.355Z,0
2016-11-03T06:23:00.944Z,0
2016-11-03T06:24:14.069Z,0
2016-11-03T06:25:27.951Z,0
2016-11-03T06:26:41.527Z,0
2016-11-03T06:27:54.804Z,0
2016-11-03T06:29:07.990Z,0
2016-11-03T06:30:21.815Z,0
2016-11-03T06:31:35.073Z,0
2016-11-03T06:32:48.741Z,0
2016-11-03T06:34:02.379Z,0
2016-11-03T06:35:15.585Z,0
2016-11-03T06:36:28.693Z,0
2016-11-03T06:37:42.462Z,0
2016-11-03T06:38:55.518Z,0
2016-11-03T06:40:08.579Z,0
2016-11-03T06:41:22.219Z,0
2016-11-03T06:42:35.770Z,0
2016-11-03T06:43:49.351Z,0
2016-11-03T06:45:02.871Z,0
2016-11-03T06:46:15.892Z,0
2016-11-03T06:47:28.954Z,0
2016-11-03T06:48:42.547Z,0
2016-11-03T06:49:56.166Z,0
2016-11-03T06:51:09.791Z,0
2016-11-03T06:52:23.416Z,0
2016-11-03T06:53:36.503Z,0
2016-11-03T06:54:50.094Z,0
2016-11-03T06:56:03.169Z,0
2016-11-03T06:57:16.205Z,0
2016-11-03T06:58:29.804Z,0
2016-11-03T06:59:43.411Z,0
2016-11-03T07:00:56.954Z,0
2016-11-03T07:02:10.485Z,0
2016-11-03T07:03:23.578Z,0
2016-11-03T07:04:36.628Z,0
2016-11-03T07:05:49.728Z,0
2016-11-03T07:07:03.305Z,0
2016-11-03T07:08:16.412Z,0
2016-11-03T07:09:29.988Z,0
2016-11-03T07:10:43.635Z,0
2016-11-03T07:11:57.233Z,0
2016-11-03T07:13:10.835Z,0
2016-11-03T07:14:24.447Z,0
2016-11-03T07:15:38.021Z,0
2016-11-03T07:16:51.825Z,0
2016-11-03T07:18:05.437Z,0
2016-11-03T07:19:18.257Z,0
2016-11-03T07:20:31.837Z,0
2016-11-03T07:21:45.144Z,0
2016-11-03T07:22:58.726Z,0
2016-11-03T07:24:12.452Z,0
2016-11-03T07:25:26.091Z,0
2016-11-03T07:26:39.178Z,0
2016-11-03T07:27:52.749Z,0
2016-11-03T07:29:06.315Z,0
2016-11-03T07:30:19.852Z,0
2016-11-03T07:31:34.878Z,0
2016-11-03T07:32:48.724Z,0
2016-11-03T07:34:01.286Z,0
2016-11-03T07:35:14.901Z,0
2016-11-03T07:36:28.539Z,0
2016-11-03T07:37:42.139Z,0
2016-11-03T07:38:55.178Z,0
2016-11-03T07:40:08.241Z,0
2016-11-03T07:41:21.964Z,0
2016-11-03T07:42:34.983Z,0
2016-11-03T07:43:48.701Z,0
2016-11-03T07:45:02.307Z,0
2016-11-03T07:46:15.606Z,0
2016-11-03T07:47:28.143Z,0
2016-11-03T07:48:41.793Z,0
2016-11-03T07:49:54.892Z,0
2016-11-03T07:51:07.400Z,0
2016-11-03T07:52:20.957Z,0
2016-11-03T07:53:33.970Z,0
2016-11-03T07:54:46.816Z,0
2016-11-03T07:56:00.197Z,0
2016-11-03T07:57:13.843Z,0
2016-11-03T07:58:27.180Z,0
2016-11-03T07:59:40.795Z,0
2016-11-03T08:00:54.387Z,0
2016-11-03T08:02:07.961Z,0
2016-11-03T08:03:20.952Z,0
2016-11-03T08:04:34.042Z,0
2016-11-03T08:05:46.011Z,0
2016-11-03T08:06:59.029Z,0
2016-11-03T08:08:12.686Z,0
2016-11-03T08:09:26.239Z,0
2016-11-03T08:10:39.887Z,0
2016-11-03T08:11:53.436Z,0
2016-11-03T08:13:06.450Z,0
2016-11-03T08:14:19.551Z,0
2016-11-03T08:15:32.660Z,0
2016-11-03T08:16:46.297Z,0
2016-11-03T08:17:59.972Z,0
2016-11-03T08:19:12.999Z,0
2016-11-03T08:20:26.115Z,0
2016-11-03T08:21:39.215Z,0
2016-11-03T08:22:52.743Z,0
2016-11-03T08:24:06.352Z,0
2016-11-03T08:25:18.910Z,0
2016-11-03T08:26:32.489Z,0
2016-11-03T08:27:46.045Z,0
2016-11-03T08:28:59.075Z,0
2016-11-03T08:30:12.667Z,0
2016-11-03T08:31:26.289Z,0
2016-11-03T08:32:38.848Z,0
2016-11-03T08:33:52.471Z,0
2016-11-03T08:35:05.522Z,0
2016-11-03T08:36:19.100Z,0
2016-11-03T08:37:32.790Z,0
2016-11-03T08:38:46.374Z,0
2016-11-03T08:39:59.964Z,0
2016-11-03T08:41:13.589Z,0
2016-11-03T08:42:27.256Z,0
2016-11-03T08:43:40.849Z,0
2016-11-03T08:44:54.514Z,0
2016-11-03T08:46:08.064Z,0
2016-11-03T08:47:21.882Z,0
2016-11-03T08:48:35.471Z,0
2016-11-03T08:49:49.120Z,0
2016-11-03T08:51:02.631Z,0
2016-11-03T08:52:16.233Z,0
2016-11-03T08:53:29.814Z,0
2016-11-03T08:54:43.416Z,0
2016-11-03T08:55:57.040Z,0
2016-11-03T08:57:10.586Z,0
2016-11-03T08:58:23.619Z,0
2016-11-03T08:59:37.200Z,0
2016-11-03T09:00:50.843Z,0
2016-11-03T09:02:04.391Z,0
2016-11-03T09:03:17.953Z,0
2016-11-03T09:04:31.577Z,0
2016-11-03T09:05:45.605Z,0
2016-11-03T09:06:58.942Z,0
2016-11-03T09:08:12.538Z,0
2016-11-03T09:09:26.128Z,0
2016-11-03T09:10:39.682Z,0
2016-11-03T09:11:53.249Z,0
2016-11-03T09:13:06.880Z,0
2016-11-03T09:14:20.519Z,0
2016-11-03T09:15:34.082Z,0
2016-11-03T09:16:47.130Z,0
2016-11-03T09:18:00.747Z,0
2016-11-03T09:19:14.376Z,0
2016-11-03T09:20:28.107Z,0
2016-11-03T09:21:41.655Z,5
2016-11-03T09:22:55.247Z,5
2016-11-03T09:24:08.848Z,5
2016-11-03T09:25:22.446Z,5
2016-11-03T09:26:35.951Z,5
2016-11-03T09:27:49.507Z,5
2016-11-03T09:29:03.043Z,5
2016-11-03T09:30:16.551Z,5
2016-11-03T09:31:30.249Z,5
2016-11-03T09:32:43.860Z,5
2016-11-03T09:33:56.898Z,5
2016-11-03T09:35:10.187Z,5
2016-11-03T09:36:23.725Z,5
2016-11-03T09:37:37.324Z,5
2016-11-03T09:38:50.717Z,5
2016-11-03T09:40:04.300Z,5
2016-11-03T09:41:17.859Z,5
2016-11-03T09:42:31.463Z,5
2016-11-03T09:43:45.019Z,5
2016-11-03T09:44:58.593Z,5
2016-11-03T09:46:12.167Z,5
2016-11-03T09:47:25.796Z,5
2016-11-03T09:48:39.438Z,5
2016-11-03T09:49:52.503Z,5
2016-11-03T09:51:06.133Z,5
2016-11-03T09:52:19.846Z,10
2016-11-03T09:53:33.465Z,10
2016-11-03T09:54:47.055Z,10
2016-11-03T09:56:00.625Z,5
2016-11-03T09:57:14.200Z,5
2016-11-03T09:58:28.084Z,5
2016-11-03T09:59:41.688Z,5
2016-11-03T10:00:55.255Z,5
2016-11-03T10:02:08.853Z,5
2016-11-03T10:03:22.428Z,10
2016-11-03T10:04:36.045Z,5
2016-11-03T10:05:49.726Z,5
2016-11-03T10:07:03.314Z,5
2016-11-03T10:08:16.931Z,5
2016-11-03T10:09:30.524Z,5
2016-11-03T10:10:43.877Z,5
2016-11-03T10:11:56.978Z,5
2016-11-03T10:13:10.123Z,5
2016-11-03T10:14:23.721Z,5
2016-11-03T10:15:37.375Z,5
2016-11-03T10:16:50.442Z,5
2016-11-03T10:18:03.772Z,5
2016-11-03T10:19:17.313Z,5
2016-11-03T10:20:30.962Z,5
2016-11-03T10:21:44.653Z,5
2016-11-03T10:22:58.223Z,5
2016-11-03T10:24:11.826Z,10
2016-11-03T10:25:25.393Z,10
2016-11-03T10:26:39.051Z,10
2016-11-03T10:27:52.429Z,10
2016-11-03T10:29:06.221Z,10
2016-11-03T10:30:19.863Z,15
2016-11-03T10:31:33.447Z,15
2016-11-03T10:32:46.985Z,15
2016-11-03T10:34:00.575Z,15
2016-11-03T10:35:13.918Z,15
2016-11-03T10:36:27.238Z,15
2016-11-03T10:37:40.845Z,15
2016-11-03T10:38:54.473Z,10
2016-11-03T10:40:08.100Z,10
2016-11-03T10:41:21.909Z,10
2016-11-03T10:42:35.519Z,10
2016-11-03T10:43:49.082Z,10
2016-11-03T10:45:02.676Z,10
2016-11-03T10:46:16.342Z,5
2016-11-03T10:47:30.009Z,5
2016-11-03T10:48:43.706Z,5
2016-11-03T10:49:57.277Z,5
2016-11-03T10:51:10.835Z,5
2016-11-03T10:52:24.361Z,5
2016-11-03T10:53:37.971Z,10
2016-11-03T10:54:51.834Z,10
2016-11-03T10:56:05.379Z,10
2016-11-03T10:57:18.958Z,10
2016-11-03T10:58:32.496Z,10
2016-11-03T10:59:46.088Z,10
2016-11-03T11:00:59.608Z,10
2016-11-03T11:02:13.167Z,15
2016-11-03T11:03:26.454Z,20
2016-11-03T11:04:40.113Z,20
2016-11-03T11:05:53.657Z,25
2016-11-03T11:07:07.225Z,20
2016-11-03T11:08:20.246Z,15
2016-11-03T11:09:33.744Z,10
2016-11-03T11:10:47.293Z,10
2016-11-03T11:12:00.868Z,5
2016-11-03T11:13:14.497Z,5
2016-11-03T11:14:28.064Z,5
2016-11-03T11:15:41.686Z,5
2016-11-03T11:16:55.284Z,5
2016-11-03T11:18:08.867Z,5
2016-11-03T11:19:22.448Z,5
2016-11-03T11:20:35.162Z,5
2016-11-03T11:21:48.196Z,5
2016-11-03T11:23:01.790Z,5
2016-11-03T11:24:15.688Z,10
2016-11-03T11:25:29.375Z,10
2016-11-03T11:26:42.941Z,10
2016-11-03T11:27:56.310Z,5
2016-11-03T11:29:09.889Z,5
2016-11-03T11:30:23.486Z,5
2016-11-03T11:31:37.076Z,0
2016-11-03T11:32:50.764Z,0
2016-11-03T11:34:04.309Z,0
2016-11-03T11:35:17.977Z,0
2016-11-03T11:36:31.554Z,0
2016-11-03T11:37:44.833Z,0
2016-11-03T11:38:58.469Z,0
2016-11-03T11:40:12.033Z,0
2016-11-03T11:41:25.603Z,0
2016-11-03T11:42:39.200Z,0
2016-11-03T11:43:52.774Z,0
2016-11-03T11:45:06.282Z,0
2016-11-03T11:46:19.808Z,0
2016-11-03T11:47:33.347Z,0
2016-11-03T11:48:46.909Z,5
2016-11-03T11:50:00.497Z,5
2016-11-03T11:51:14.048Z,5
2016-11-03T11:52:27.698Z,5
2016-11-03T11:53:41.191Z,5
2016-11-03T11:54:55.035Z,5
2016-11-03T11:56:08.641Z,5
2016-11-03T11:57:22.262Z,5
2016-11-03T11:58:35.865Z,5
2016-11-03T12:01:12.799Z,10
2016-11-03T12:02:26.376Z,10
2016-11-03T12:03:39.944Z,10
2016-11-03T12:04:53.508Z,10
2016-11-03T12:06:07.066Z,10
2016-11-03T12:07:20.016Z,10
2016-11-03T12:08:47.591Z,10
2016-11-03T12:10:01.178Z,10
2016-11-03T12:11:14.829Z,10
2016-11-03T12:12:28.419Z,10
2016-11-03T12:13:41.399Z,10
2016-11-03T12:14:55.034Z,10
2016-11-03T12:16:08.598Z,10
2016-11-03T12:17:22.161Z,10
2016-11-03T12:18:35.661Z,15
2016-11-03T12:19:48.099Z,15
2016-11-03T12:21:01.175Z,10
2016-11-03T12:22:14.285Z,10
2016-11-03T12:23:26.743Z,10
2016-11-03T12:24:40.333Z,10
2016-11-03T12:25:53.944Z,10
2016-11-03T12:27:07.238Z,10
2016-11-03T12:28:21.252Z,10
2016-11-03T12:29:34.852Z,10
2016-11-03T12:30:48.817Z,10
2016-11-03T12:32:02.365Z,10
2016-11-03T12:33:15.924Z,10
2016-11-03T12:34:28.999Z,10
2016-11-03T12:35:42.104Z,10
2016-11-03T12:36:54.864Z,10
2016-11-03T12:38:08.430Z,10
2016-11-03T12:39:21.975Z,10
2016-11-03T12:40:35.569Z,10
2016-11-03T12:41:49.122Z,5
2016-11-03T12:43:02.736Z,5
2016-11-03T12:44:16.331Z,10
2016-11-03T12:45:29.908Z,10
2016-11-03T12:46:42.647Z,10
2016-11-03T12:47:55.466Z,15
2016-11-03T12:49:08.505Z,10
2016-11-03T12:50:22.045Z,15
2016-11-03T12:51:35.577Z,15
2016-11-03T12:52:49.198Z,15
2016-11-03T12:54:02.237Z,15
2016-11-03T12:55:15.784Z,20
2016-11-03T12:56:29.296Z,20
2016-11-03T12:57:42.833Z,25
2016-11-03T12:58:56.352Z,20
2016-11-03T13:00:09.876Z,20
2016-11-03T13:01:22.372Z,20
2016-11-03T13:02:35.929Z,15
2016-11-03T13:03:49.494Z,15
2016-11-03T13:05:03.037Z,15
2016-11-03T13:06:16.606Z,15
2016-11-03T13:07:30.078Z,15
2016-11-03T13:08:43.196Z,20
2016-11-03T13:09:56.810Z,20
2016-11-03T13:11:10.420Z,20
2016-11-03T13:12:24.015Z,20
2016-11-03T13:13:37.578Z,20
2016-11-03T13:14:51.099Z,20
2016-11-03T13:16:04.096Z,25
2016-11-03T13:17:17.699Z,25
2016-11-03T13:18:30.689Z,25
2016-11-03T13:19:44.212Z,25
2016-11-03T13:20:57.761Z,25
2016-11-03T13:22:11.450Z,25
2016-11-03T13:23:24.573Z,25
2016-11-03T13:24:37.605Z,25
2016-11-03T13:25:50.689Z,30
2016-11-03T13:27:03.702Z,30
2016-11-03T13:28:17.185Z,30
2016-11-03T13:29:30.756Z,30
2016-11-03T13:30:44.346Z,35
2016-11-03T13:31:58.133Z,35
2016-11-03T13:33:11.649Z,40
2016-11-03T13:34:25.070Z,40
2016-11-03T13:35:38.628Z,35
2016-11-03T13:36:52.281Z,35
2016-11-03T13:38:05.809Z,35
2016-11-03T13:39:19.373Z,35
2016-11-03T13:40:32.865Z,35
2016-11-03T13:41:45.847Z,35
2016-11-03T13:42:59.448Z,35
2016-11-03T13:44:13.065Z,30
2016-11-03T13:45:26.782Z,30
2016-11-03T13:46:40.450Z,35
2016-11-03T13:47:54.069Z,40
2016-11-03T13:49:07.691Z,45
2016-11-03T13:50:21.263Z,45
2016-11-03T13:51:34.952Z,50
2016-11-03T13:52:48.287Z,55
2016-11-03T13:54:01.899Z,55
2016-11-03T13:55:14.945Z,60
2016-11-03T13:56:28.554Z,60
2016-11-03T13:57:41.546Z,65
2016-11-03T13:58:54.601Z,70
2016-11-03T14:00:07.687Z,60
2016-11-03T14:01:21.283Z,55
2016-11-03T14:02:34.368Z,50
2016-11-03T14:03:48.017Z,50
2016-11-03T14:05:01.126Z,55
2016-11-03T14:06:14.739Z,55
2016-11-03T14:07:28.392Z,50
2016-11-03T14:08:41.474Z,45
2016-11-03T14:09:55.195Z,50
2016-11-03T14:11:08.786Z,55
2016-11-03T14:12:22.422Z,60
2016-11-03T14:13:36.031Z,50
2016-11-03T14:14:49.015Z,55
2016-11-03T14:16:02.593Z,50
2016-11-03T14:17:15.890Z,65
2016-11-03T14:18:29.439Z,75
2016-11-03T14:19:42.795Z,55
2016-11-03T14:20:56.475Z,40
2016-11-03T14:22:10.146Z,30
2016-11-03T14:23:23.209Z,25
2016-11-03T14:24:36.883Z,25
2016-11-03T14:25:50.518Z,35
2016-11-03T14:27:04.141Z,30
2016-11-03T14:28:17.709Z,25
2016-11-03T14:29:31.243Z,30
2016-11-03T14:30:44.997Z,35
2016-11-03T14:31:58.076Z,45
2016-11-03T14:33:11.164Z,40
2016-11-03T14:34:24.666Z,35
2016-11-03T14:35:38.373Z,30
2016-11-03T14:36:52.063Z,25
2016-11-03T14:38:05.947Z,30
2016-11-03T14:39:19.462Z,25
2016-11-03T14:40:33.038Z,20
2016-11-03T14:41:46.670Z,20
2016-11-03T14:43:00.224Z,20
2016-11-03T14:44:13.782Z,30
2016-11-03T14:45:27.415Z,35
2016-11-03T14:46:41.133Z,45
2016-11-03T14:47:55.056Z,45
2016-11-03T14:49:08.690Z,40
2016-11-03T14:50:21.992Z,40
2016-11-03T14:51:35.493Z,40
2016-11-03T14:52:49.232Z,45
2016-11-03T14:54:02.292Z,35
2016-11-03T14:55:15.897Z,30
2016-11-03T14:56:29.546Z,30
2016-11-03T14:57:42.835Z,35
2016-11-03T14:58:56.468Z,25
2016-11-03T15:00:09.522Z,15
2016-11-03T15:01:22.672Z,15
2016-11-03T15:02:36.429Z,10
2016-11-03T15:03:50.158Z,10
2016-11-03T15:05:03.704Z,15
2016-11-03T15:06:17.347Z,10
2016-11-03T15:07:30.764Z,10
2016-11-03T15:08:44.472Z,15
2016-11-03T15:09:58.605Z,15
2016-11-03T15:11:11.617Z,20
2016-11-03T15:12:24.755Z,25
2016-11-03T15:13:38.485Z,25
2016-11-03T15:14:51.759Z,20
2016-11-03T15:16:05.356Z,25
2016-11-03T15:17:18.476Z,25
2016-11-03T15:18:32.165Z,25
2016-11-03T15:19:45.817Z,25
2016-11-03T15:20:59.468Z,25
2016-11-03T15:22:13.092Z,20
2016-11-03T15:23:25.539Z,10
2016-11-03T15:24:39.146Z,10
2016-11-03T15:25:52.310Z,10
2016-11-03T15:27:06.041Z,10
2016-11-03T15:28:19.634Z,5
2016-11-03T15:29:33.198Z,10
2016-11-03T15:30:46.166Z,10
2016-11-03T15:31:59.742Z,15
2016-11-03T15:33:13.136Z,15
2016-11-03T15:34:27.085Z,20
2016-11-03T15:35:40.652Z,30
2016-11-03T15:36:53.693Z,40
2016-11-03T15:38:06.157Z,55
2016-11-03T15:39:19.124Z,70
2016-11-03T15:40:32.667Z,50
2016-11-03T15:41:45.978Z,45
2016-11-03T15:42:59.658Z,40
2016-11-03T15:44:13.258Z,35
2016-11-03T15:45:26.914Z,30
2016-11-03T15:46:40.608Z,35
2016-11-03T15:47:54.159Z,45
2016-11-03T15:49:07.789Z,55
2016-11-03T15:50:21.646Z,50
2016-11-03T15:51:35.022Z,45
2016-11-03T15:52:48.052Z,45
2016-11-03T15:54:01.128Z,45
2016-11-03T15:55:14.174Z,45
2016-11-03T15:56:27.780Z,35
2016-11-03T15:57:41.391Z,40
2016-11-03T15:58:54.006Z,40
2016-11-03T16:00:07.587Z,45
2016-11-03T16:01:21.194Z,65
2016-11-03T16:02:34.779Z,70
2016-11-03T16:03:48.434Z,105
2016-11-03T16:05:02.076Z,120
2016-11-03T16:06:16.024Z,90
2016-11-03T16:07:29.124Z,95
2016-11-03T16:08:42.885Z,85
2016-11-03T16:09:55.891Z,70
2016-11-03T16:11:09.471Z,60
2016-11-03T16:12:23.102Z,65
2016-11-03T16:13:36.123Z,60
2016-11-03T16:14:49.714Z,50
2016-11-03T16:16:02.817Z,50
2016-11-03T16:17:15.898Z,35
2016-11-03T16:18:29.546Z,30
2016-11-03T16:19:43.160Z,35
2016-11-03T16:20:56.822Z,35
2016-11-03T16:22:09.983Z,30
2016-11-03T16:23:23.639Z,35
2016-11-03T16:24:35.654Z,35
2016-11-03T16:25:48.893Z,30
2016-11-03T16:27:02.266Z,35
2016-11-03T16:28:15.925Z,35
2016-11-03T16:29:28.354Z,30
2016-11-03T16:30:42.028Z,25
2016-11-03T16:31:55.679Z,20
2016-11-03T16:33:09.340Z,20
2016-11-03T16:34:22.475Z,30
2016-11-03T16:35:35.521Z,20
2016-11-03T16:36:49.054Z,25
2016-11-03T16:38:02.209Z,30
2016-11-03T16:39:15.860Z,45
2016-11-03T16:40:28.925Z,50
2016-11-03T16:41:41.992Z,40
2016-11-03T16:42:55.541Z,40
2016-11-03T16:44:08.632Z,40
2016-11-03T16:45:22.027Z,40
2016-11-03T16:46:35.606Z,35
2016-11-03T16:47:49.310Z,25
2016-11-03T16:49:03.088Z,30
2016-11-03T16:50:16.727Z,30
2016-11-03T16:51:30.305Z,30
2016-11-03T16:52:43.399Z,25
2016-11-03T16:53:57.051Z,20
2016-11-03T16:55:10.729Z,20
2016-11-03T16:56:24.492Z,15
2016-11-03T16:57:37.483Z,15
2016-11-03T16:58:51.073Z,15
2016-11-03T17:00:03.636Z,15
2016-11-03T17:01:17.251Z,15
2016-11-03T17:02:30.971Z,15
2016-11-03T17:03:44.542Z,15
2016-11-03T17:04:57.793Z,15
2016-11-03T17:06:10.810Z,15
2016-11-03T17:07:23.388Z,20
2016-11-03T17:08:36.184Z,20
2016-11-03T17:09:49.829Z,20
2016-11-03T17:11:03.763Z,25
2016-11-03T17:12:17.313Z,25
2016-11-03T17:13:30.936Z,20
2016-11-03T17:14:44.449Z,15
2016-11-03T17:15:57.742Z,10
2016-11-03T17:17:10.799Z,15
2016-11-03T17:18:23.629Z,15
2016-11-03T17:19:36.747Z,10
2016-11-03T17:20:50.328Z,5
2016-11-03T17:22:04.063Z,5
2016-11-03T17:23:16.916Z,5
2016-11-03T17:24:30.602Z,10
2016-11-03T17:25:44.233Z,10
2016-11-03T17:26:56.799Z,10
2016-11-03T17:28:09.344Z,10
2016-11-03T17:29:21.857Z,15
2016-11-03T17:30:35.462Z,20
2016-11-03T17:31:49.107Z,25
2016-11-03T17:33:02.114Z,30
2016-11-03T17:34:15.744Z,30
2016-11-03T17:35:29.364Z,35
2016-11-03T17:36:42.481Z,35
2016-11-03T17:37:55.808Z,35
2016-11-03T17:39:08.952Z,30
2016-11-03T17:40:22.584Z,35
2016-11-03T17:41:35.744Z,35
2016-11-03T17:42:49.456Z,35
2016-11-03T17:44:03.038Z,30
2016-11-03T17:45:16.088Z,30
2016-11-03T17:46:29.248Z,25
2016-11-03T17:47:42.961Z,25
2016-11-03T17:48:56.075Z,30
2016-11-03T17:50:09.148Z,30
2016-11-03T17:51:22.191Z,30
2016-11-03T17:52:35.268Z,30